To NAV CANADA Home Page Login to a new session Search on AWWS site Feedback and Comments Disclaimer Vers la page française équivalente Tips FAQ What's new on the site To the Forecasts and Observations / NOTAM section To "File a Flight Plan" website Publications and other links Update of the User's profile FIC Telephone Numbers My Weather Data Folder Route Weather Data Regional Weather Data Local Weather Data To the Forecasts and Observations / NOTAM section
Request Generated 08/04/2015 at 09:40:51 UTC . Weather information available at that time is displayed.

METAR/TAF

SWIFT CURRENT/SK    (show WxCam)

METAR CYYN 040900Z AUTO 12010G15KT 9SM CLR 16/11 A2990 RMK SLP112
DENSITY ALT 3400FT=
METAR CYYN 040800Z AUTO 13014KT 9SM CLR 16/12 A2990 RMK SLP112
DENSITY ALT 3400FT=
METAR CYYN 040700Z AUTO 13010G15KT 9SM CLR 17/12 A2991 RMK SLP118
DENSITY ALT 3400FT=

TAF CYYN 040538Z 0406/0418 12012G22KT P6SM SCT150
FM040800 14012KT P6SM SCT100 OVC150 PROB30 0408/0418 VRB15G25KT
5SM TSRA BKN100CB
RMK FCST BASED ON AUTO OBS. NXT FCST BY 041200Z=
Your time UTC time
Weather data provided by Environment Canada and NAV CANADA